createdAt,value
2019-05-17T00:00:01.801Z,6.8500
2019-05-17T00:00:11.506Z,6.7750
2019-05-17T00:00:21.164Z,6.8000
2019-05-17T00:00:30.855Z,6.6000
2019-05-17T00:00:40.515Z,6.8250
2019-05-17T00:00:50.175Z,6.8500
2019-05-17T00:01:00.846Z,6.7750
2019-05-17T00:01:10.544Z,6.6500
2019-05-17T00:01:21.178Z,6.7500
2019-05-17T00:01:30.848Z,7.0750
2019-05-17T00:01:40.568Z,7.7250
2019-05-17T00:01:50.219Z,7.6750
2019-05-17T00:01:59.895Z,7.8250
2019-05-17T00:02:09.594Z,7.8500
2019-05-17T00:02:21.434Z,7.7500
2019-05-17T00:02:31.125Z,7.7750
2019-05-17T00:02:40.809Z,7.7250
2019-05-17T00:02:50.505Z,7.8000
2019-05-17T00:03:00.155Z,7.8000
2019-05-17T00:03:09.840Z,7.5000
2019-05-17T00:03:21.684Z,7.7500
2019-05-17T00:03:31.354Z,7.6750
2019-05-17T00:03:39.895Z,7.6750
2019-05-17T00:04:00.381Z,7.7000
2019-05-17T00:04:10.335Z,7.7000
2019-05-17T00:04:20.027Z,7.8000
2019-05-17T00:04:29.694Z,32.4847
2019-05-17T00:04:41.556Z,68.3001
2019-05-17T00:05:00.885Z,68.0000
2019-05-17T00:05:10.539Z,67.9250
2019-05-17T00:05:20.195Z,68.3000
2019-05-17T00:05:29.859Z,67.9500
2019-05-17T00:05:41.738Z,68.3751
2019-05-17T00:06:00.135Z,67.8750
2019-05-17T00:06:09.817Z,68.0000
2019-05-17T00:06:21.697Z,68.0000
2019-05-17T00:06:31.425Z,67.9000
2019-05-17T00:06:50.704Z,67.8500
2019-05-17T00:07:00.365Z,68.4253
2019-05-17T00:07:10.059Z,68.2250
2019-05-17T00:07:20.744Z,68.3250
2019-05-17T00:07:30.437Z,68.8500
2019-05-17T00:07:40.307Z,68.7000
2019-05-17T00:07:59.895Z,69.0500
2019-05-17T00:08:09.729Z,68.8250
2019-05-17T00:08:31.915Z,68.9000
2019-05-17T00:08:34.537Z,69.2751
2019-05-17T00:08:40.704Z,69.0500
2019-05-17T00:08:50.390Z,68.7000
2019-05-17T00:09:00.018Z,69.2252
2019-05-17T00:09:10.653Z,68.7501
2019-05-17T00:09:20.328Z,68.6750
2019-05-17T00:09:30.296Z,68.9250
2019-05-17T00:09:39.950Z,68.7250
2019-05-17T00:09:49.636Z,68.8250
2019-05-17T00:10:01.493Z,68.7750
2019-05-17T00:10:09.966Z,68.8250
2019-05-17T00:10:19.620Z,68.8500
2019-05-17T00:10:30.291Z,68.6750
2019-05-17T00:10:39.970Z,68.8000
2019-05-17T00:10:49.606Z,68.8000
2019-05-17T00:11:01.452Z,69.1000
2019-05-17T00:11:11.150Z,68.6501
2019-05-17T00:11:20.888Z,68.5750
2019-05-17T00:11:30.544Z,68.6750
2019-05-17T00:11:41.246Z,68.8000
2019-05-17T00:11:49.936Z,68.9250
2019-05-17T00:11:59.570Z,68.6000
2019-05-17T00:12:11.420Z,68.7750
2019-05-17T00:12:19.944Z,68.7753
2019-05-17T00:12:29.589Z,68.6750
2019-05-17T00:12:40.535Z,68.5500
2019-05-17T00:12:50.227Z,68.7750
2019-05-17T00:13:00.890Z,69.2749
2019-05-17T00:13:14.509Z,68.6000
2019-05-17T00:13:20.010Z,68.7250
2019-05-17T00:13:29.718Z,68.8000
2019-05-17T00:13:40.386Z,68.7000
2019-05-17T00:13:50.098Z,68.6000
2019-05-17T00:13:59.766Z,68.7000
2019-05-17T00:14:11.595Z,69.0000
2019-05-17T00:14:21.289Z,68.7000
2019-05-17T00:14:30.946Z,68.8750
2019-05-17T00:14:40.638Z,68.6500
2019-05-17T00:14:50.308Z,68.8250
2019-05-17T00:15:00.066Z,68.5250
2019-05-17T00:15:09.739Z,68.7750
2019-05-17T00:15:21.815Z,68.8250
2019-05-17T00:15:31.517Z,68.6501
2019-05-17T00:15:41.166Z,68.7000
2019-05-17T00:16:00.576Z,68.8000
2019-05-17T00:16:11.470Z,68.5500
2019-05-17T00:16:21.161Z,68.9002
2019-05-17T00:16:30.822Z,68.7500
2019-05-17T00:16:40.528Z,68.4750
2019-05-17T00:16:50.246Z,68.5250
2019-05-17T00:16:59.905Z,68.9749
2019-05-17T00:17:09.560Z,68.8500
2019-05-17T00:17:20.215Z,69.2002
2019-05-17T00:17:29.920Z,68.8500
2019-05-17T00:17:39.576Z,68.7750
2019-05-17T00:17:50.246Z,68.8500
2019-05-17T00:18:00.892Z,68.7750
2019-05-17T00:18:10.547Z,68.7250
2019-05-17T00:18:20.288Z,68.7000
2019-05-17T00:18:30.010Z,68.5750
2019-05-17T00:18:39.671Z,69.2001
2019-05-17T00:19:00.234Z,68.7500
2019-05-17T00:19:10.906Z,68.7251
2019-05-17T00:19:21.550Z,69.6750
2019-05-17T00:19:31.236Z,68.5250
2019-05-17T00:19:40.920Z,68.7000
2019-05-17T00:20:01.412Z,68.6750
2019-05-17T00:20:11.099Z,68.8504
2019-05-17T00:20:20.786Z,68.6500
2019-05-17T00:20:30.455Z,68.8250
2019-05-17T00:20:41.126Z,68.5250
2019-05-17T00:21:01.698Z,68.6000
2019-05-17T00:21:11.380Z,68.7500
2019-05-17T00:21:19.898Z,69.2001
2019-05-17T00:21:29.610Z,69.0249
2019-05-17T00:22:00.991Z,68.6500
2019-05-17T00:22:10.672Z,68.7500
2019-05-17T00:22:20.330Z,68.5750
2019-05-17T00:22:29.989Z,68.7750
2019-05-17T00:22:39.670Z,68.8500
2019-05-17T00:23:00.180Z,68.7000
2019-05-17T00:23:10.858Z,68.7750
2019-05-17T00:23:20.540Z,68.6000
2019-05-17T00:23:30.200Z,68.7250
2019-05-17T00:23:40.147Z,68.6500
2019-05-17T00:24:00.677Z,68.6750
2019-05-17T00:24:10.357Z,68.5250
2019-05-17T00:24:20.078Z,68.6250
2019-05-17T00:24:30.748Z,68.6000
2019-05-17T00:24:40.520Z,68.6000
2019-05-17T00:25:01.101Z,68.7500
2019-05-17T00:25:10.796Z,69.4500
2019-05-17T00:25:20.486Z,69.5002
2019-05-17T00:25:30.182Z,68.6750
2019-05-17T00:25:40.907Z,68.9249
2019-05-17T00:26:01.420Z,68.0249
2019-05-17T00:26:11.128Z,68.6750
2019-05-17T00:26:20.825Z,68.5750
2019-05-17T00:26:31.488Z,68.7500
2019-05-17T00:26:41.146Z,68.8750
2019-05-17T00:26:50.897Z,68.7250
2019-05-17T00:27:00.585Z,68.8250
2019-05-17T00:27:10.269Z,68.5750
2019-05-17T00:27:19.956Z,68.8250
2019-05-17T00:27:29.656Z,68.7750
2019-05-17T00:27:50.166Z,68.8750
2019-05-17T00:27:59.886Z,68.5000
2019-05-17T00:28:09.581Z,68.6250
2019-05-17T00:28:21.461Z,68.4750
2019-05-17T00:28:31.739Z,68.5750
2019-05-17T00:28:41.420Z,68.7000
2019-05-17T00:28:49.936Z,68.5250
2019-05-17T00:28:59.778Z,68.7000
2019-05-17T00:29:11.622Z,68.6500
2019-05-17T00:29:21.340Z,68.7500
2019-05-17T00:29:39.662Z,68.7000
2019-05-17T00:29:51.490Z,68.7000
2019-05-17T00:30:01.146Z,68.8250
2019-05-17T00:30:10.820Z,68.7499
2019-05-17T00:30:20.609Z,68.7750
2019-05-17T00:30:30.280Z,68.5500
2019-05-17T00:30:41.479Z,69.5749
2019-05-17T00:30:59.870Z,69.0252
2019-05-17T00:31:11.696Z,69.0499
2019-05-17T00:31:20.196Z,68.7000
2019-05-17T00:31:29.846Z,68.7750
2019-05-17T00:31:41.666Z,68.8000
2019-05-17T00:31:51.405Z,68.5500
2019-05-17T00:32:01.060Z,68.7750
2019-05-17T00:32:10.764Z,69.3000
2019-05-17T00:32:20.405Z,69.2749
2019-05-17T00:32:30.096Z,68.8750
2019-05-17T00:32:39.778Z,68.7250
2019-05-17T00:32:51.616Z,68.7251
2019-05-17T00:33:00.162Z,69.0500
2019-05-17T00:33:09.820Z,68.7000
2019-05-17T00:33:21.646Z,68.7000
2019-05-17T00:33:31.298Z,68.7499
2019-05-17T00:33:40.997Z,68.6000
2019-05-17T00:33:50.670Z,68.9499
2019-05-17T00:34:00.326Z,68.7750
2019-05-17T00:34:10.026Z,68.6000
2019-05-17T00:34:20.868Z,68.6500
2019-05-17T00:34:31.526Z,68.6500
2019-05-17T00:34:41.230Z,68.6250
2019-05-17T00:35:00.162Z,68.5000
2019-05-17T00:35:09.795Z,68.9750
2019-05-17T00:35:21.665Z,68.0250
2019-05-17T00:35:41.005Z,68.7250
2019-05-17T00:35:49.646Z,68.6500
2019-05-17T00:36:01.459Z,68.3750
2019-05-17T00:36:11.118Z,68.6000
2019-05-17T00:36:20.755Z,69.2999
2019-05-17T00:36:31.411Z,68.7000
2019-05-17T00:36:39.893Z,68.6500
2019-05-17T00:36:49.582Z,68.5500
2019-05-17T00:37:07.058Z,69.5001
2019-05-17T00:37:10.953Z,68.7500
2019-05-17T00:37:19.782Z,68.6000
2019-05-17T00:37:31.579Z,68.8250
2019-05-17T00:37:40.270Z,68.7750
2019-05-17T00:37:50.059Z,68.8500
2019-05-17T00:37:59.748Z,68.4750
2019-05-17T00:38:11.550Z,68.7000
2019-05-17T00:38:21.236Z,68.7000
2019-05-17T00:38:48.109Z,68.6500
2019-05-17T00:38:52.109Z,68.5500
2019-05-17T00:39:00.773Z,68.5250
2019-05-17T00:39:10.409Z,68.7500
2019-05-17T00:39:20.049Z,68.8000
2019-05-17T00:39:42.695Z,68.5751
2019-05-17T00:39:50.204Z,68.4750
2019-05-17T00:40:10.719Z,68.7000
2019-05-17T00:40:20.374Z,70.0249
2019-05-17T00:40:30.059Z,68.8500
2019-05-17T00:40:40.709Z,68.8000
2019-05-17T00:40:50.360Z,68.6250
2019-05-17T00:40:59.991Z,68.5500
2019-05-17T00:41:09.646Z,68.7500
2019-05-17T00:41:21.479Z,68.7000
2019-05-17T00:41:31.121Z,68.6500
2019-05-17T00:41:40.849Z,68.8500
2019-05-17T00:41:50.598Z,68.6750
2019-05-17T00:42:00.223Z,68.6000
2019-05-17T00:42:09.918Z,68.6251
2019-05-17T00:42:19.600Z,68.6250
2019-05-17T00:42:31.458Z,68.9000
2019-05-17T00:42:40.141Z,68.5500
2019-05-17T00:42:49.809Z,68.7000
2019-05-17T00:43:01.643Z,69.7000
2019-05-17T00:43:10.328Z,68.7250
2019-05-17T00:43:19.999Z,68.7500
2019-05-17T00:43:29.636Z,68.6250
2019-05-17T00:43:41.468Z,68.5750
2019-05-17T00:43:51.158Z,68.8000
2019-05-17T00:44:02.091Z,69.7249
2019-05-17T00:44:09.588Z,68.8750
2019-05-17T00:44:21.399Z,69.0500
2019-05-17T00:44:31.048Z,69.4999
2019-05-17T00:44:39.578Z,68.5750
2019-05-17T00:44:51.409Z,68.7001
2019-05-17T00:45:01.079Z,68.8500
2019-05-17T00:45:10.761Z,68.6500
2019-05-17T00:45:20.489Z,68.8750
2019-05-17T00:45:31.209Z,68.5500
2019-05-17T00:45:40.872Z,68.6000
2019-05-17T00:45:50.519Z,68.6500
2019-05-17T00:46:00.161Z,68.6500
2019-05-17T00:46:09.809Z,68.7750
2019-05-17T00:46:31.328Z,68.7750
2019-05-17T00:46:46.586Z,68.6500
2019-05-17T00:46:50.790Z,68.6752
2019-05-17T00:46:59.811Z,68.5750
2019-05-17T00:47:10.650Z,68.5750
2019-05-17T00:47:21.343Z,69.5999
2019-05-17T00:47:31.066Z,68.6750
2019-05-17T00:47:40.720Z,68.5250
2019-05-17T00:47:50.374Z,68.7750
2019-05-17T00:48:00.101Z,68.6500
2019-05-17T00:48:10.837Z,68.6750
2019-05-17T00:48:21.650Z,68.6500
2019-05-17T00:48:30.294Z,69.9250
2019-05-17T00:48:39.969Z,68.7750
2019-05-17T00:48:49.721Z,68.6500
2019-05-17T00:49:01.688Z,68.5000
2019-05-17T00:49:20.017Z,68.7000
2019-05-17T00:49:30.741Z,69.7249
2019-05-17T00:49:40.657Z,68.6500
2019-05-17T00:49:50.340Z,68.5000
2019-05-17T00:50:00.020Z,68.6500
2019-05-17T00:50:10.719Z,69.5500
2019-05-17T00:50:19.691Z,68.7000
2019-05-17T00:50:31.530Z,68.7000
2019-05-17T00:50:41.196Z,68.4251
2019-05-17T00:50:53.246Z,68.7250
2019-05-17T00:51:02.159Z,69.8500
2019-05-17T00:51:11.151Z,68.5000
2019-05-17T00:51:20.836Z,68.8000
2019-05-17T00:51:30.467Z,68.5500
2019-05-17T00:51:40.146Z,68.7000
2019-05-17T00:51:49.780Z,68.8500
2019-05-17T00:52:01.645Z,68.6250
2019-05-17T00:52:11.337Z,68.6250
2019-05-17T00:52:21.007Z,68.6500
2019-05-17T00:52:31.719Z,68.6000
2019-05-17T00:52:41.368Z,68.7000
2019-05-17T00:52:51.031Z,68.5750
2019-05-17T00:53:00.677Z,68.7500
2019-05-17T00:53:10.500Z,68.5250
2019-05-17T00:53:20.450Z,68.6000
2019-05-17T00:53:30.141Z,68.5000
2019-05-17T00:53:39.867Z,68.9251
2019-05-17T00:53:50.544Z,68.7749
2019-05-17T00:54:01.371Z,68.5500
2019-05-17T00:54:11.026Z,68.6000
2019-05-17T00:54:20.977Z,68.6000
2019-05-17T00:54:30.689Z,68.6750
2019-05-17T00:54:41.496Z,68.7000
2019-05-17T00:54:51.148Z,68.6250
2019-05-17T00:55:00.823Z,68.9502
2019-05-17T00:55:10.491Z,68.7000
2019-05-17T00:55:20.156Z,69.6250
2019-05-17T00:55:29.797Z,68.7500
2019-05-17T00:55:41.647Z,68.8749
2019-05-17T00:55:51.337Z,68.7500
2019-05-17T00:56:02.012Z,68.5250
2019-05-17T00:56:11.683Z,68.7000
2019-05-17T00:56:21.317Z,68.7500
2019-05-17T00:56:31.009Z,68.7250
2019-05-17T00:56:40.686Z,68.7000
2019-05-17T00:56:50.370Z,68.6500
2019-05-17T00:57:00.111Z,68.7250
2019-05-17T00:57:09.769Z,69.1251
2019-05-17T00:57:21.600Z,68.8750
2019-05-17T00:57:30.277Z,68.6250
2019-05-17T00:57:39.926Z,68.8250
2019-05-17T00:57:49.613Z,68.6000
2019-05-17T00:58:10.130Z,68.5750
2019-05-17T00:58:19.798Z,68.5500
2019-05-17T00:58:31.659Z,68.6249
2019-05-17T00:58:41.442Z,68.6000
2019-05-17T00:58:51.527Z,68.5750
2019-05-17T00:59:10.929Z,68.7500
2019-05-17T00:59:20.600Z,68.5500
2019-05-17T00:59:30.240Z,68.6000
2019-05-17T00:59:39.906Z,68.5250
2019-05-17T00:59:51.750Z,68.6500
2019-05-17T01:00:10.147Z,68.6750
2019-05-17T01:00:19.808Z,68.5000
2019-05-17T01:00:32.710Z,68.5250
2019-05-17T01:00:40.318Z,68.7251
2019-05-17T01:00:49.986Z,69.0749
2019-05-17T01:00:59.642Z,68.8000
2019-05-17T01:01:11.470Z,68.8500
2019-05-17T01:01:21.118Z,68.9750
2019-05-17T01:01:30.789Z,68.7750
2019-05-17T01:01:40.468Z,68.6250
2019-05-17T01:01:50.088Z,68.9002
2019-05-17T01:01:59.788Z,68.6750
2019-05-17T01:02:11.611Z,68.5000
2019-05-17T01:02:21.298Z,68.7749
2019-05-17T01:02:30.971Z,68.5000
2019-05-17T01:02:40.683Z,68.7500
2019-05-17T01:02:50.322Z,68.7750
2019-05-17T01:03:01.128Z,69.0003
2019-05-17T01:03:10.802Z,68.6250
2019-05-17T01:03:20.471Z,69.0499
2019-05-17T01:03:31.331Z,68.6505
2019-05-17T01:03:39.851Z,68.6500
2019-05-17T01:03:49.752Z,68.3501
2019-05-17T01:04:02.597Z,69.1501
2019-05-17T01:04:10.143Z,69.1251
2019-05-17T01:04:20.988Z,68.6500
2019-05-17T01:04:30.661Z,68.7250
2019-05-17T01:04:41.322Z,68.6500
2019-05-17T01:04:50.960Z,68.6500
2019-05-17T01:05:00.658Z,69.5749
2019-05-17T01:05:11.506Z,68.4498
2019-05-17T01:05:20.182Z,68.4000
2019-05-17T01:05:29.841Z,69.2999
2019-05-17T01:05:41.810Z,68.6001
2019-05-17T01:05:50.834Z,68.7750
2019-05-17T01:06:00.674Z,68.5500
2019-05-17T01:06:11.608Z,69.1249
2019-05-17T01:06:20.122Z,68.6000
2019-05-17T01:06:30.772Z,68.6750
2019-05-17T01:06:41.406Z,68.7250
2019-05-17T01:06:51.210Z,68.8500
2019-05-17T01:07:01.162Z,68.6250
2019-05-17T01:07:09.660Z,68.5000
2019-05-17T01:07:30.218Z,68.2500
2019-05-17T01:07:39.900Z,68.6250
2019-05-17T01:07:49.865Z,68.6750
2019-05-17T01:08:01.688Z,68.6000
2019-05-17T01:08:11.368Z,68.5250
2019-05-17T01:08:19.898Z,68.8750
2019-05-17T01:08:29.568Z,68.5750
2019-05-17T01:08:41.412Z,68.7250
2019-05-17T01:09:01.094Z,68.6750
2019-05-17T01:09:04.123Z,68.8250
2019-05-17T01:09:09.581Z,68.7000
2019-05-17T01:09:21.404Z,68.8250
2019-05-17T01:09:31.053Z,68.5250
2019-05-17T01:09:39.767Z,68.6000
2019-05-17T01:09:51.864Z,68.5750
2019-05-17T01:10:01.533Z,68.6000
2019-05-17T01:10:11.180Z,68.5750
2019-05-17T01:10:20.884Z,68.6000
2019-05-17T01:10:30.594Z,68.8251
2019-05-17T01:10:40.296Z,68.6500
2019-05-17T01:10:49.975Z,68.6250
2019-05-17T01:10:59.618Z,68.4750
2019-05-17T01:11:11.446Z,68.6250
2019-05-17T01:11:22.118Z,68.8250
2019-05-17T01:11:30.818Z,68.5750
2019-05-17T01:11:40.504Z,68.6500
2019-05-17T01:11:50.148Z,68.7250
2019-05-17T01:11:59.776Z,68.8250
2019-05-17T01:12:20.336Z,68.9003
2019-05-17T01:12:31.164Z,68.4250
2019-05-17T01:12:41.144Z,68.4750
2019-05-17T01:12:50.844Z,68.4500
2019-05-17T01:13:00.583Z,68.6750
2019-05-17T01:13:10.542Z,68.5250
2019-05-17T01:13:20.234Z,68.4500
2019-05-17T01:13:29.928Z,68.4750
2019-05-17T01:13:39.575Z,68.5000
2019-05-17T01:13:50.665Z,68.4500
2019-05-17T01:14:00.336Z,68.4500
2019-05-17T01:14:11.464Z,68.7750
2019-05-17T01:14:21.150Z,69.2499
2019-05-17T01:14:29.646Z,68.5000
2019-05-17T01:14:41.544Z,69.2499
2019-05-17T01:14:51.237Z,68.6000
2019-05-17T01:15:00.923Z,68.5250
2019-05-17T01:15:11.618Z,68.7500
2019-05-17T01:15:21.339Z,68.5251
2019-05-17T01:15:29.986Z,69.1499
2019-05-17T01:15:40.646Z,68.4250
2019-05-17T01:15:50.286Z,68.7500
2019-05-17T01:15:59.944Z,68.9500
2019-05-17T01:16:10.818Z,68.7000
2019-05-17T01:16:20.504Z,68.5000
2019-05-17T01:16:30.204Z,68.8001
2019-05-17T01:16:39.939Z,68.4001
2019-05-17T01:16:52.810Z,68.3250
2019-05-17T01:17:11.503Z,68.5250
2019-05-17T01:17:21.152Z,68.6750
2019-05-17T01:17:30.803Z,68.4750
2019-05-17T01:17:40.475Z,68.5250
2019-05-17T01:17:51.333Z,68.5500
2019-05-17T01:18:00.998Z,70.0750
2019-05-17T01:18:19.844Z,70.3749
2019-05-17T01:19:16.427Z,70.9750
2019-05-17T01:19:16.427Z,70.0750
2019-05-17T01:19:40.730Z,70.4000
2019-05-17T01:20:36.941Z,70.0500
2019-05-17T01:20:36.941Z,70.2000
2019-05-17T01:20:40.411Z,70.2250
2019-05-17T01:20:43.569Z,70.1500
2019-05-17T01:21:08.579Z,70.0500
2019-05-17T01:21:11.735Z,69.9500
2019-05-17T01:21:31.018Z,70.1250
2019-05-17T01:21:40.683Z,70.0500
2019-05-17T01:21:51.304Z,70.3250
2019-05-17T01:22:00.969Z,69.8000
2019-05-17T01:22:20.648Z,69.9500
2019-05-17T01:22:30.278Z,69.8750
2019-05-17T01:22:39.974Z,69.9250
2019-05-17T01:22:49.620Z,69.9250
2019-05-17T01:23:00.264Z,70.0251
2019-05-17T01:23:09.904Z,69.9500
2019-05-17T01:23:19.610Z,69.6750
2019-05-17T01:23:40.378Z,70.0750
2019-05-17T01:23:50.036Z,71.0750
2019-05-17T01:24:00.945Z,69.9500
2019-05-17T01:24:10.626Z,70.0000
2019-05-17T01:24:20.334Z,70.0251
2019-05-17T01:24:30.018Z,69.9001
2019-05-17T01:24:39.674Z,69.9000
2019-05-17T01:24:51.533Z,69.9000
2019-05-17T01:25:01.174Z,69.9500
2019-05-17T01:25:09.680Z,70.1500
2019-05-17T01:25:20.344Z,69.7750
2019-05-17T01:25:30.014Z,70.8500
2019-05-17T01:25:39.714Z,71.0250
2019-05-17T01:25:51.594Z,70.6750
2019-05-17T01:26:01.274Z,69.9750
2019-05-17T01:26:10.953Z,69.8750
2019-05-17T01:26:20.632Z,70.1750
2019-05-17T01:26:30.297Z,69.7500
2019-05-17T01:26:39.992Z,69.8500
2019-05-17T01:26:49.654Z,70.0250
2019-05-17T01:27:01.476Z,70.0000
2019-05-17T01:27:10.164Z,70.0250
2019-05-17T01:27:19.829Z,69.8999
2019-05-17T01:27:30.515Z,69.9250
2019-05-17T01:27:39.572Z,70.0500
2019-05-17T01:27:51.368Z,69.9750
2019-05-17T01:28:01.038Z,69.8500
2019-05-17T01:28:21.538Z,70.1250
2019-05-17T01:28:30.205Z,70.0000
2019-05-17T01:28:39.888Z,69.9500
2019-05-17T01:28:49.564Z,70.0250
2019-05-17T01:29:01.388Z,70.0750
2019-05-17T01:29:11.048Z,69.9250
2019-05-17T01:29:21.705Z,69.8250
2019-05-17T01:29:31.402Z,69.9750
2019-05-17T01:29:41.383Z,70.0500
2019-05-17T01:29:51.075Z,69.7250
2019-05-17T01:30:00.787Z,69.9750
2019-05-17T01:30:10.438Z,69.9500
2019-05-17T01:30:20.086Z,70.0000
2019-05-17T01:30:29.716Z,70.1499
2019-05-17T01:30:40.402Z,70.0250
2019-05-17T01:30:50.098Z,70.0000
2019-05-17T01:30:59.767Z,70.0000
2019-05-17T01:31:11.604Z,69.9500
2019-05-17T01:31:21.268Z,70.0500
2019-05-17T01:31:29.787Z,69.9003
2019-05-17T01:31:40.444Z,70.0750
2019-05-17T01:31:50.104Z,69.8500
2019-05-17T01:32:00.764Z,70.0749
2019-05-17T01:32:10.408Z,69.9750
2019-05-17T01:32:20.134Z,69.9500
2019-05-17T01:32:29.795Z,69.9750
2019-05-17T01:32:41.678Z,70.0250
2019-05-17T01:32:57.015Z,69.9250
2019-05-17T01:33:00.870Z,70.1250
2019-05-17T01:33:09.670Z,70.1500
2019-05-17T01:33:21.469Z,70.0500
2019-05-17T01:33:31.158Z,70.9751
2019-05-17T01:33:40.799Z,72.7000
2019-05-17T01:33:50.441Z,72.9250
2019-05-17T01:34:00.075Z,73.8749
2019-05-17T01:34:10.729Z,73.9249
2019-05-17T01:34:20.369Z,72.8250
2019-05-17T01:34:29.989Z,72.8000
2019-05-17T01:34:39.640Z,72.5750
2019-05-17T01:34:51.484Z,72.6250
2019-05-17T01:35:01.129Z,72.4750
2019-05-17T01:35:10.863Z,72.9999
2019-05-17T01:35:21.586Z,72.4750
2019-05-17T01:35:39.923Z,72.9749
2019-05-17T01:35:49.610Z,72.5000
2019-05-17T01:36:01.407Z,72.6750
2019-05-17T01:36:11.070Z,73.9000
2019-05-17T01:36:20.719Z,72.9250
2019-05-17T01:36:31.369Z,72.9000
2019-05-17T01:36:41.040Z,72.8250
2019-05-17T01:36:50.709Z,73.6251
2019-05-17T01:37:00.363Z,73.1499
2019-05-17T01:37:10.029Z,72.6500
2019-05-17T01:37:19.729Z,72.9250
2019-05-17T01:37:31.569Z,72.9250
2019-05-17T01:37:40.275Z,72.7500
2019-05-17T01:37:50.008Z,73.1000
2019-05-17T01:38:00.839Z,72.8500
2019-05-17T01:38:10.509Z,72.8750
2019-05-17T01:38:20.209Z,72.8750
2019-05-17T01:38:31.131Z,73.1250
2019-05-17T01:38:40.818Z,72.8000
2019-05-17T01:38:51.509Z,73.0250
2019-05-17T01:39:00.039Z,72.9750
2019-05-17T01:39:17.696Z,73.0999
2019-05-17T01:39:21.582Z,72.7250
2019-05-17T01:39:33.527Z,74.1500
2019-05-17T01:39:41.151Z,72.9250
2019-05-17T01:39:50.848Z,72.8750
2019-05-17T01:40:00.512Z,72.9000
2019-05-17T01:40:12.337Z,73.3001
2019-05-17T01:40:19.848Z,73.1500
2019-05-17T01:40:31.651Z,72.9750
2019-05-17T01:40:41.376Z,73.4250
2019-05-17T01:40:51.048Z,72.9000
2019-05-17T01:41:00.700Z,72.9250
2019-05-17T01:41:10.366Z,73.4502
2019-05-17T01:41:20.021Z,72.8750
2019-05-17T01:41:30.857Z,79.3251
2019-05-17T01:41:40.558Z,79.8500
2019-05-17T01:41:51.209Z,80.5250
2019-05-17T01:42:00.862Z,81.0749
2019-05-17T01:42:10.528Z,80.2250
2019-05-17T01:42:20.202Z,80.1750
2019-05-17T01:42:29.852Z,80.6250
2019-05-17T01:42:41.661Z,80.4250
2019-05-17T01:42:51.373Z,80.4501
2019-05-17T01:43:01.038Z,80.2500
2019-05-17T01:43:10.703Z,80.5000
2019-05-17T01:43:20.437Z,81.5248
2019-05-17T01:43:30.099Z,80.2000
2019-05-17T01:43:39.787Z,80.2500
2019-05-17T01:43:49.568Z,80.1250
2019-05-17T01:44:01.390Z,80.1750
2019-05-17T01:44:11.098Z,80.4751
2019-05-17T01:44:20.813Z,80.2750
2019-05-17T01:44:30.479Z,79.9750
2019-05-17T01:44:40.128Z,79.9750
2019-05-17T01:44:49.758Z,79.7500
2019-05-17T01:45:01.608Z,80.4749
2019-05-17T01:45:11.327Z,80.2250
2019-05-17T01:45:21.018Z,79.9750
2019-05-17T01:45:30.683Z,80.4498
2019-05-17T01:45:40.352Z,79.9000
2019-05-17T01:45:50.058Z,79.9000
2019-05-17T01:46:00.727Z,79.7999
2019-05-17T01:46:10.402Z,80.0500
2019-05-17T01:46:20.070Z,80.0500
2019-05-17T01:46:29.733Z,80.2503
2019-05-17T01:46:41.563Z,80.0500
2019-05-17T01:46:51.212Z,80.0750
2019-05-17T01:47:00.883Z,80.1500
2019-05-17T01:47:10.530Z,79.9250
2019-05-17T01:47:20.228Z,80.0250
2019-05-17T01:47:29.890Z,80.0000
2019-05-17T01:47:41.731Z,80.0250
2019-05-17T01:47:50.228Z,80.2999
2019-05-17T01:48:00.927Z,79.9500
2019-05-17T01:48:10.608Z,79.9000
2019-05-17T01:48:20.247Z,79.9500
2019-05-17T01:48:29.916Z,80.1250
2019-05-17T01:48:39.568Z,79.9250
2019-05-17T01:48:51.541Z,80.8249
2019-05-17T01:49:01.214Z,81.4999
2019-05-17T01:49:10.868Z,80.2000
2019-05-17T01:49:21.151Z,79.9250
2019-05-17T01:49:29.621Z,80.0250
2019-05-17T01:49:41.452Z,80.0250
2019-05-17T01:49:51.071Z,79.8750
2019-05-17T01:50:00.722Z,79.9250
2019-05-17T01:50:10.371Z,80.9498
2019-05-17T01:50:19.996Z,79.9001
2019-05-17T01:50:29.652Z,80.0500
2019-05-17T01:50:41.501Z,79.8500
2019-05-17T01:50:51.154Z,80.0500
2019-05-17T01:51:00.801Z,80.2999
2019-05-17T01:51:10.543Z,79.6251
2019-05-17T01:51:20.226Z,80.0000
2019-05-17T01:51:29.885Z,80.0000
2019-05-17T01:51:39.574Z,79.9500
2019-05-17T01:51:51.432Z,80.2000
2019-05-17T01:52:01.072Z,79.7750
2019-05-17T01:52:10.711Z,80.1000
2019-05-17T01:52:31.192Z,79.9250
2019-05-17T01:52:40.842Z,80.0250
2019-05-17T01:52:50.511Z,79.9000
2019-05-17T01:53:00.150Z,79.8500
2019-05-17T01:53:10.824Z,79.9750
2019-05-17T01:53:20.471Z,79.6501
2019-05-17T01:53:30.171Z,80.0000
2019-05-17T01:53:39.876Z,79.8500
2019-05-17T01:54:01.403Z,79.8750
2019-05-17T01:54:11.051Z,79.9750
2019-05-17T01:54:20.729Z,79.9500
2019-05-17T01:54:30.373Z,79.9250
2019-05-17T01:54:42.012Z,79.8750
2019-05-17T01:54:51.682Z,79.9250
2019-05-17T01:55:01.302Z,79.7750
2019-05-17T01:55:10.968Z,79.8750
2019-05-17T01:55:20.619Z,80.1000
2019-05-17T01:55:30.271Z,79.9000
2019-05-17T01:55:39.940Z,80.0500
2019-05-17T01:55:50.841Z,79.9750
2019-05-17T01:56:00.524Z,79.8500
2019-05-17T01:56:10.208Z,79.9250
2019-05-17T01:56:20.902Z,79.8500
2019-05-17T01:56:31.580Z,79.8000
2019-05-17T01:56:41.272Z,79.9750
2019-05-17T01:56:56.518Z,79.9750
2019-05-17T01:57:00.498Z,79.9500
2019-05-17T01:57:10.468Z,79.9250
2019-05-17T01:57:20.108Z,80.1000
2019-05-17T01:57:29.737Z,80.0000
2019-05-17T01:57:41.552Z,79.8250
2019-05-17T01:57:50.051Z,80.0000
2019-05-17T01:57:59.695Z,80.0000
2019-05-17T01:58:11.516Z,79.9750
2019-05-17T01:58:21.166Z,79.9750
2019-05-17T01:58:29.799Z,79.8500
2019-05-17T01:58:41.640Z,79.9500
2019-05-17T01:58:52.420Z,79.9500
2019-05-17T01:58:59.915Z,79.9750
2019-05-17T01:59:09.581Z,80.0250
2019-05-17T01:59:21.695Z,81.0001
2019-05-17T01:59:31.379Z,79.9500
2019-05-17T01:59:41.056Z,79.9500
2019-05-17T01:59:50.735Z,79.9750
2019-05-17T02:00:00.426Z,79.9749
2019-05-17T02:00:10.058Z,79.9750
2019-05-17T02:00:19.726Z,79.9750
2019-05-17T02:00:31.570Z,80.0000
2019-05-17T02:00:41.248Z,80.1001
2019-05-17T02:00:50.960Z,80.0000
2019-05-17T02:00:59.626Z,79.9750
2019-05-17T02:01:11.475Z,80.0000
2019-05-17T02:01:21.215Z,79.8499
2019-05-17T02:01:30.885Z,80.0250
2019-05-17T02:01:40.526Z,80.0000
2019-05-17T02:01:50.190Z,79.8250
2019-05-17T02:01:59.875Z,80.1000
2019-05-17T02:02:11.716Z,79.9000
2019-05-17T02:02:21.396Z,80.2500
2019-05-17T02:02:31.101Z,80.0000
2019-05-17T02:02:40.796Z,80.0000
2019-05-17T02:02:50.521Z,79.9000
2019-05-17T02:03:00.199Z,79.8000
2019-05-17T02:03:09.915Z,79.9000
2019-05-17T02:03:19.592Z,79.9250
2019-05-17T02:03:40.714Z,79.9250
2019-05-17T02:03:50.415Z,79.9500
2019-05-17T02:04:00.064Z,80.0250
2019-05-17T02:04:09.727Z,79.9250
2019-05-17T02:04:21.594Z,79.9750
2019-05-17T02:04:32.268Z,79.9250
2019-05-17T02:04:39.758Z,79.9500
2019-05-17T02:04:50.027Z,79.4000
2019-05-17T02:05:00.694Z,80.1000
2019-05-17T02:05:10.336Z,80.1250
2019-05-17T02:05:19.998Z,79.8499
2019-05-17T02:05:30.670Z,79.9750
2019-05-17T02:05:40.347Z,80.2500
2019-05-17T02:06:01.441Z,79.9000
2019-05-17T02:06:10.101Z,79.8500
2019-05-17T02:06:19.773Z,80.1000
2019-05-17T02:06:31.594Z,80.4248
2019-05-17T02:06:41.283Z,80.4752
2019-05-17T02:06:50.954Z,79.9500
2019-05-17T02:07:00.626Z,80.1250
2019-05-17T02:07:10.281Z,80.0250
2019-05-17T02:07:26.755Z,79.9750
2019-05-17T02:07:41.069Z,79.9000
2019-05-17T02:07:50.732Z,80.8253
2019-05-17T02:08:01.386Z,79.7750
2019-05-17T02:08:09.926Z,79.9250
2019-05-17T02:08:19.580Z,80.0250
2019-05-17T02:08:31.427Z,80.0000
2019-05-17T02:08:41.077Z,79.9500
2019-05-17T02:08:50.733Z,80.0250
2019-05-17T02:09:00.410Z,79.9750
2019-05-17T02:09:10.060Z,79.9000
2019-05-17T02:09:34.959Z,79.9748